Pagina principală
METAR-TAF:

METAR-TAF

Aeroporturi :

Pittsburg, Kansas, Statele Unite ale Americii

Latitudine: 37-26-58N, longitudine: 094-43-52W, elevație: 290 m

Observații meteo curente

Raportul a fost făcut în urmă cu 19 de minute, la 01:15 UTC
Vânt 4 kt de la Nord/Nord-vest
Temperatură 22°C
Umiditate 65%
Presiune 1007 hPa
Vizibilitate: 16.1 km
Nori împrăștiați la o înălțime de 9000 picior

METAR: KPTS 220115Z AUTO 33004KT 10SM SCT090 22/15 A2975 RMK AO2 LTG DSNT SE T02230150 PWINO

Ora: 20:34 (01:34 UTC)


TAF: lipsă

Observații și prognoze meteo pentru peste 4.000 de aeroporturi (rapoarte METAR și TAF).

Stațiile disponibile sunt reprezentate pe hartă prin puncte galbene și roșii.

Țineți indicatorul mouse-ului pe punctul dorit pentru a vedea denumirea stației.

Apoi, faceți clic pentru a vedea observațiile și prognozele meteorologice.

Pentru a schimba harta: Pentru mărire, faceți clic pe butoanele verzi cu cruce neagră; pentru micșorare, pe butonul verde cu o liniuță; pentru hărți învecinate, pe săgețile verzi.


METAR-TAF: